sensor_id;sensor_type;location;lat;lon;timestamp;temperature;humidity
20233;DHT22;37438;55.674;13.074;2023-03-14T00:00:28;9.60;99.90
20233;DHT22;37438;55.674;13.074;2023-03-14T00:03:33;9.60;99.90
20233;DHT22;37438;55.674;13.074;2023-03-14T00:06:37;9.50;99.90
20233;DHT22;37438;55.674;13.074;2023-03-14T00:09:42;9.50;99.90
20233;DHT22;37438;55.674;13.074;2023-03-14T00:12:46;9.40;99.90
20233;DHT22;37438;55.674;13.074;2023-03-14T00:15:51;9.40;99.90
20233;DHT22;37438;55.674;13.074;2023-03-14T00:18:55;9.40;99.90
20233;DHT22;37438;55.674;13.074;2023-03-14T00:22:00;9.40;99.90
20233;DHT22;37438;55.674;13.074;2023-03-14T00:25:05;9.40;99.90
20233;DHT22;37438;55.674;13.074;2023-03-14T00:28:10;9.40;99.90
20233;DHT22;37438;55.674;13.074;2023-03-14T00:31:16;9.40;99.90
20233;DHT22;37438;55.674;13.074;2023-03-14T00:34:21;9.30;99.90
20233;DHT22;37438;55.674;13.074;2023-03-14T00:37:25;9.30;99.90
20233;DHT22;37438;55.674;13.074;2023-03-14T00:40:29;9.20;99.90
20233;DHT22;37438;55.674;13.074;2023-03-14T00:43:34;9.10;99.90
20233;DHT22;37438;55.674;13.074;2023-03-14T00:46:38;9.10;99.90
20233;DHT22;37438;55.674;13.074;2023-03-14T00:49:44;9.10;99.90
20233;DHT22;37438;55.674;13.074;2023-03-14T00:52:49;9.00;99.90
20233;DHT22;37438;55.674;13.074;2023-03-14T00:55:53;9.00;99.90
20233;DHT22;37438;55.674;13.074;2023-03-14T00:58:58;9.10;99.90
20233;DHT22;37438;55.674;13.074;2023-03-14T01:02:02;9.00;99.90
20233;DHT22;37438;55.674;13.074;2023-03-14T01:05:07;9.00;99.90
20233;DHT22;37438;55.674;13.074;2023-03-14T01:08:11;9.00;99.90
20233;DHT22;37438;55.674;13.074;2023-03-14T01:11:24;8.90;99.90
20233;DHT22;37438;55.674;13.074;2023-03-14T01:14:29;8.70;99.90
20233;DHT22;37438;55.674;13.074;2023-03-14T01:17:35;8.50;99.90
20233;DHT22;37438;55.674;13.074;2023-03-14T01:20:42;8.50;99.90
20233;DHT22;37438;55.674;13.074;2023-03-14T01:23:47;8.50;99.90
20233;DHT22;37438;55.674;13.074;2023-03-14T01:26:52;8.40;99.90
20233;DHT22;37438;55.674;13.074;2023-03-14T01:29:57;8.40;99.90
20233;DHT22;37438;55.674;13.074;2023-03-14T01:33:01;8.40;99.90
20233;DHT22;37438;55.674;13.074;2023-03-14T01:36:06;8.40;99.90
20233;DHT22;37438;55.674;13.074;2023-03-14T01:39:11;8.40;99.90
20233;DHT22;37438;55.674;13.074;2023-03-14T01:42:18;8.40;99.90
20233;DHT22;37438;55.674;13.074;2023-03-14T01:49:31;8.60;99.90
20233;DHT22;37438;55.674;13.074;2023-03-14T01:52:44;8.50;99.90
20233;DHT22;37438;55.674;13.074;2023-03-14T01:55:52;8.50;99.90
20233;DHT22;37438;55.674;13.074;2023-03-14T01:58:58;8.50;99.90
20233;DHT22;37438;55.674;13.074;2023-03-14T02:02:05;8.60;99.90
20233;DHT22;37438;55.674;13.074;2023-03-14T02:05:23;8.60;99.90
20233;DHT22;37438;55.674;13.074;2023-03-14T02:08:37;8.60;99.90
20233;DHT22;37438;55.674;13.074;2023-03-14T02:11:51;8.60;99.90
20233;DHT22;37438;55.674;13.074;2023-03-14T02:15:22;8.70;99.90
20233;DHT22;37438;55.674;13.074;2023-03-14T02:18:40;8.80;99.90
20233;DHT22;37438;55.674;13.074;2023-03-14T02:22:13;8.70;99.90
20233;DHT22;37438;55.674;13.074;2023-03-14T02:25:53;8.80;99.90
20233;DHT22;37438;55.674;13.074;2023-03-14T02:29:00;8.80;99.90
20233;DHT22;37438;55.674;13.074;2023-03-14T02:32:07;8.70;99.90
20233;DHT22;37438;55.674;13.074;2023-03-14T02:35:12;8.70;99.90
20233;DHT22;37438;55.674;13.074;2023-03-14T02:38:33;8.70;99.90
20233;DHT22;37438;55.674;13.074;2023-03-14T02:41:41;8.60;99.90
20233;DHT22;37438;55.674;13.074;2023-03-14T02:44:59;8.60;99.90
20233;DHT22;37438;55.674;13.074;2023-03-14T02:48:11;8.70;99.90
20233;DHT22;37438;55.674;13.074;2023-03-14T02:51:18;8.70;99.90
20233;DHT22;37438;55.674;13.074;2023-03-14T02:54:24;8.70;99.90
20233;DHT22;37438;55.674;13.074;2023-03-14T02:57:29;8.80;99.90
20233;DHT22;37438;55.674;13.074;2023-03-14T03:00:33;8.80;99.90
20233;DHT22;37438;55.674;13.074;2023-03-14T03:03:39;8.90;99.90
20233;DHT22;37438;55.674;13.074;2023-03-14T03:06:44;8.90;99.90
20233;DHT22;37438;55.674;13.074;2023-03-14T03:09:49;8.90;99.90
20233;DHT22;37438;55.674;13.074;2023-03-14T03:12:54;9.00;99.90
20233;DHT22;37438;55.674;13.074;2023-03-14T03:16:02;9.00;99.90
20233;DHT22;37438;55.674;13.074;2023-03-14T03:19:06;9.10;99.90
20233;DHT22;37438;55.674;13.074;2023-03-14T03:22:10;9.20;99.90
20233;DHT22;37438;55.674;13.074;2023-03-14T03:25:17;9.10;99.90
20233;DHT22;37438;55.674;13.074;2023-03-14T03:28:22;9.20;99.90
20233;DHT22;37438;55.674;13.074;2023-03-14T03:31:28;9.10;99.90
20233;DHT22;37438;55.674;13.074;2023-03-14T03:34:33;9.00;99.90
20233;DHT22;37438;55.674;13.074;2023-03-14T03:37:37;8.90;99.90
20233;DHT22;37438;55.674;13.074;2023-03-14T03:40:44;8.80;99.90
20233;DHT22;37438;55.674;13.074;2023-03-14T03:43:49;8.70;99.90
20233;DHT22;37438;55.674;13.074;2023-03-14T03:46:54;8.70;99.90
20233;DHT22;37438;55.674;13.074;2023-03-14T03:49:58;8.80;99.90
20233;DHT22;37438;55.674;13.074;2023-03-14T03:53:02;8.90;99.90
20233;DHT22;37438;55.674;13.074;2023-03-14T03:56:08;8.90;99.90
20233;DHT22;37438;55.674;13.074;2023-03-14T03:59:12;8.90;99.90
20233;DHT22;37438;55.674;13.074;2023-03-14T04:02:17;8.90;99.90
20233;DHT22;37438;55.674;13.074;2023-03-14T04:05:22;8.90;99.90
20233;DHT22;37438;55.674;13.074;2023-03-14T04:08:32;8.90;99.90
20233;DHT22;37438;55.674;13.074;2023-03-14T04:11:38;8.80;99.90
20233;DHT22;37438;55.674;13.074;2023-03-14T04:15:03;8.80;99.90
20233;DHT22;37438;55.674;13.074;2023-03-14T04:18:08;8.80;99.90
20233;DHT22;37438;55.674;13.074;2023-03-14T04:21:13;8.70;99.90
20233;DHT22;37438;55.674;13.074;2023-03-14T04:24:27;8.70;99.90
20233;DHT22;37438;55.674;13.074;2023-03-14T04:27:33;8.60;99.90
20233;DHT22;37438;55.674;13.074;2023-03-14T04:30:40;8.60;99.90
20233;DHT22;37438;55.674;13.074;2023-03-14T04:33:52;8.70;99.90
20233;DHT22;37438;55.674;13.074;2023-03-14T04:37:03;8.60;99.90
20233;DHT22;37438;55.674;13.074;2023-03-14T04:40:13;8.70;99.90
20233;DHT22;37438;55.674;13.074;2023-03-14T04:43:22;8.80;99.90
20233;DHT22;37438;55.674;13.074;2023-03-14T04:46:36;8.80;99.90
20233;DHT22;37438;55.674;13.074;2023-03-14T04:49:43;8.80;99.90
20233;DHT22;37438;55.674;13.074;2023-03-14T04:52:50;8.80;99.90
20233;DHT22;37438;55.674;13.074;2023-03-14T04:55:56;8.80;99.90
20233;DHT22;37438;55.674;13.074;2023-03-14T04:59:06;8.90;99.90
20233;DHT22;37438;55.674;13.074;2023-03-14T05:02:14;8.90;99.90
20233;DHT22;37438;55.674;13.074;2023-03-14T05:05:39;9.00;99.90
20233;DHT22;37438;55.674;13.074;2023-03-14T05:09:09;9.00;99.90
20233;DHT22;37438;55.674;13.074;2023-03-14T05:12:36;9.10;99.90
20233;DHT22;37438;55.674;13.074;2023-03-14T05:16:06;9.10;99.90
20233;DHT22;37438;55.674;13.074;2023-03-14T05:19:47;9.10;99.90
20233;DHT22;37438;55.674;13.074;2023-03-14T05:23:27;9.10;99.90
20233;DHT22;37438;55.674;13.074;2023-03-14T05:26:45;9.10;99.90
20233;DHT22;37438;55.674;13.074;2023-03-14T05:30:10;9.00;99.90
20233;DHT22;37438;55.674;13.074;2023-03-14T05:33:23;8.90;99.90
20233;DHT22;37438;55.674;13.074;2023-03-14T05:36:38;8.90;99.90
20233;DHT22;37438;55.674;13.074;2023-03-14T05:40:02;8.90;99.90
20233;DHT22;37438;55.674;13.074;2023-03-14T05:43:15;9.00;99.90
20233;DHT22;37438;55.674;13.074;2023-03-14T05:46:46;8.90;99.90
20233;DHT22;37438;55.674;13.074;2023-03-14T05:50:07;8.90;99.90
20233;DHT22;37438;55.674;13.074;2023-03-14T05:53:31;9.00;99.90
20233;DHT22;37438;55.674;13.074;2023-03-14T05:57:08;9.00;99.90
20233;DHT22;37438;55.674;13.074;2023-03-14T06:00:27;9.00;99.90
20233;DHT22;37438;55.674;13.074;2023-03-14T06:03:43;9.00;99.90
20233;DHT22;37438;55.674;13.074;2023-03-14T06:06:48;8.90;99.90
20233;DHT22;37438;55.674;13.074;2023-03-14T06:09:53;8.80;99.90
20233;DHT22;37438;55.674;13.074;2023-03-14T06:12:59;8.70;99.90
20233;DHT22;37438;55.674;13.074;2023-03-14T06:16:03;8.70;99.90
20233;DHT22;37438;55.674;13.074;2023-03-14T06:19:08;8.70;99.90
20233;DHT22;37438;55.674;13.074;2023-03-14T06:22:13;8.80;99.90
20233;DHT22;37438;55.674;13.074;2023-03-14T06:25:19;8.90;99.90
20233;DHT22;37438;55.674;13.074;2023-03-14T06:28:25;9.00;99.90
20233;DHT22;37438;55.674;13.074;2023-03-14T06:31:33;9.00;99.90
20233;DHT22;37438;55.674;13.074;2023-03-14T06:34:42;9.10;99.90
20233;DHT22;37438;55.674;13.074;2023-03-14T06:37:47;9.10;99.90
20233;DHT22;37438;55.674;13.074;2023-03-14T06:40:52;9.10;99.90
20233;DHT22;37438;55.674;13.074;2023-03-14T06:44:07;9.20;99.90
20233;DHT22;37438;55.674;13.074;2023-03-14T06:47:11;9.20;99.90
20233;DHT22;37438;55.674;13.074;2023-03-14T06:50:19;9.20;99.90
20233;DHT22;37438;55.674;13.074;2023-03-14T06:53:25;9.20;99.90
20233;DHT22;37438;55.674;13.074;2023-03-14T06:56:30;9.20;99.90
20233;DHT22;37438;55.674;13.074;2023-03-14T06:59:35;9.20;99.90
20233;DHT22;37438;55.674;13.074;2023-03-14T07:02:40;9.20;99.90
20233;DHT22;37438;55.674;13.074;2023-03-14T07:05:58;9.30;99.90
20233;DHT22;37438;55.674;13.074;2023-03-14T07:09:03;9.20;99.90
20233;DHT22;37438;55.674;13.074;2023-03-14T07:12:09;9.30;99.90
20233;DHT22;37438;55.674;13.074;2023-03-14T07:15:14;9.30;99.90
20233;DHT22;37438;55.674;13.074;2023-03-14T07:18:43;9.40;99.90
20233;DHT22;37438;55.674;13.074;2023-03-14T07:21:47;9.40;99.90
20233;DHT22;37438;55.674;13.074;2023-03-14T07:24:57;9.50;99.90
20233;DHT22;37438;55.674;13.074;2023-03-14T07:28:02;9.50;99.90
20233;DHT22;37438;55.674;13.074;2023-03-14T07:31:08;9.50;99.90
20233;DHT22;37438;55.674;13.074;2023-03-14T07:34:14;9.50;99.90
20233;DHT22;37438;55.674;13.074;2023-03-14T07:37:21;9.60;99.90
20233;DHT22;37438;55.674;13.074;2023-03-14T07:40:25;9.70;99.90
20233;DHT22;37438;55.674;13.074;2023-03-14T07:43:31;9.70;99.90
20233;DHT22;37438;55.674;13.074;2023-03-14T07:46:37;9.80;99.90
20233;DHT22;37438;55.674;13.074;2023-03-14T07:49:41;9.80;99.90
20233;DHT22;37438;55.674;13.074;2023-03-14T07:52:46;9.80;99.90
20233;DHT22;37438;55.674;13.074;2023-03-14T07:55:54;9.70;99.90
20233;DHT22;37438;55.674;13.074;2023-03-14T07:58:59;9.70;99.90
20233;DHT22;37438;55.674;13.074;2023-03-14T08:02:03;9.70;99.90
20233;DHT22;37438;55.674;13.074;2023-03-14T08:05:10;9.70;99.90
20233;DHT22;37438;55.674;13.074;2023-03-14T08:08:14;9.70;99.90
20233;DHT22;37438;55.674;13.074;2023-03-14T08:11:19;9.70;99.90
20233;DHT22;37438;55.674;13.074;2023-03-14T08:14:23;9.80;99.90
20233;DHT22;37438;55.674;13.074;2023-03-14T08:17:28;9.80;99.90
20233;DHT22;37438;55.674;13.074;2023-03-14T08:20:33;9.80;99.90
20233;DHT22;37438;55.674;13.074;2023-03-14T08:23:37;9.80;99.90
20233;DHT22;37438;55.674;13.074;2023-03-14T08:26:41;9.90;99.90
20233;DHT22;37438;55.674;13.074;2023-03-14T08:29:46;9.90;99.90
20233;DHT22;37438;55.674;13.074;2023-03-14T08:32:50;9.80;99.90
20233;DHT22;37438;55.674;13.074;2023-03-14T08:35:57;9.80;99.90
20233;DHT22;37438;55.674;13.074;2023-03-14T08:39:02;9.80;99.90
20233;DHT22;37438;55.674;13.074;2023-03-14T08:42:08;9.80;99.90
20233;DHT22;37438;55.674;13.074;2023-03-14T08:45:14;10.00;99.90
20233;DHT22;37438;55.674;13.074;2023-03-14T08:48:20;10.00;99.90
20233;DHT22;37438;55.674;13.074;2023-03-14T08:51:25;10.10;99.90
20233;DHT22;37438;55.674;13.074;2023-03-14T08:54:30;10.00;99.90
20233;DHT22;37438;55.674;13.074;2023-03-14T08:57:35;10.10;99.90
20233;DHT22;37438;55.674;13.074;2023-03-14T09:00:40;9.90;99.90
20233;DHT22;37438;55.674;13.074;2023-03-14T09:03:44;9.90;99.90
20233;DHT22;37438;55.674;13.074;2023-03-14T09:06:50;9.90;99.90
20233;DHT22;37438;55.674;13.074;2023-03-14T09:09:54;10.00;99.90
20233;DHT22;37438;55.674;13.074;2023-03-14T09:12:58;10.00;99.90
20233;DHT22;37438;55.674;13.074;2023-03-14T09:16:04;9.80;99.90
20233;DHT22;37438;55.674;13.074;2023-03-14T09:19:10;9.50;99.90
20233;DHT22;37438;55.674;13.074;2023-03-14T09:22:14;9.70;99.90
20233;DHT22;37438;55.674;13.074;2023-03-14T09:25:18;9.50;99.90
20233;DHT22;37438;55.674;13.074;2023-03-14T09:28:23;9.40;99.90
20233;DHT22;37438;55.674;13.074;2023-03-14T09:31:27;9.30;99.90
20233;DHT22;37438;55.674;13.074;2023-03-14T09:34:33;9.30;99.90
20233;DHT22;37438;55.674;13.074;2023-03-14T09:37:39;9.30;99.90
20233;DHT22;37438;55.674;13.074;2023-03-14T09:40:44;9.20;99.90
20233;DHT22;37438;55.674;13.074;2023-03-14T09:43:49;9.10;99.90
20233;DHT22;37438;55.674;13.074;2023-03-14T09:47:03;9.40;99.90
20233;DHT22;37438;55.674;13.074;2023-03-14T09:50:15;9.30;99.90
20233;DHT22;37438;55.674;13.074;2023-03-14T09:53:28;8.50;99.90
20233;DHT22;37438;55.674;13.074;2023-03-14T09:56:35;7.50;99.90
20233;DHT22;37438;55.674;13.074;2023-03-14T09:59:43;7.40;99.90
20233;DHT22;37438;55.674;13.074;2023-03-14T10:06:14;7.40;99.90
20233;DHT22;37438;55.674;13.074;2023-03-14T10:09:21;7.60;99.90
20233;DHT22;37438;55.674;13.074;2023-03-14T10:12:36;7.20;99.90
20233;DHT22;37438;55.674;13.074;2023-03-14T10:15:41;7.40;99.90
20233;DHT22;37438;55.674;13.074;2023-03-14T10:18:50;7.20;99.90
20233;DHT22;37438;55.674;13.074;2023-03-14T10:21:54;7.20;99.90
20233;DHT22;37438;55.674;13.074;2023-03-14T10:25:03;7.20;99.90
20233;DHT22;37438;55.674;13.074;2023-03-14T10:28:28;7.20;99.90
20233;DHT22;37438;55.674;13.074;2023-03-14T10:35:21;6.80;99.90
20233;DHT22;37438;55.674;13.074;2023-03-14T10:38:28;6.60;99.90
20233;DHT22;37438;55.674;13.074;2023-03-14T10:41:32;6.40;99.90
20233;DHT22;37438;55.674;13.074;2023-03-14T10:44:38;6.30;99.90
20233;DHT22;37438;55.674;13.074;2023-03-14T10:47:49;6.40;99.90
20233;DHT22;37438;55.674;13.074;2023-03-14T10:54:13;6.20;99.90
20233;DHT22;37438;55.674;13.074;2023-03-14T10:57:20;6.00;99.90
20233;DHT22;37438;55.674;13.074;2023-03-14T11:00:25;6.20;99.90
20233;DHT22;37438;55.674;13.074;2023-03-14T11:03:31;5.80;99.90
20233;DHT22;37438;55.674;13.074;2023-03-14T11:10:34;5.70;99.90
20233;DHT22;37438;55.674;13.074;2023-03-14T11:16:59;5.50;99.90
20233;DHT22;37438;55.674;13.074;2023-03-14T11:20:31;5.80;99.90
20233;DHT22;37438;55.674;13.074;2023-03-14T11:33:45;5.40;99.90
20233;DHT22;37438;55.674;13.074;2023-03-14T11:37:19;5.50;99.90
20233;DHT22;37438;55.674;13.074;2023-03-14T11:40:27;5.40;99.90
20233;DHT22;37438;55.674;13.074;2023-03-14T11:43:32;5.30;99.90
20233;DHT22;37438;55.674;13.074;2023-03-14T11:47:07;5.70;99.90
20233;DHT22;37438;55.674;13.074;2023-03-14T11:50:24;5.80;99.90
20233;DHT22;37438;55.674;13.074;2023-03-14T11:56:57;5.50;99.90
20233;DHT22;37438;55.674;13.074;2023-03-14T12:03:45;6.00;99.90
20233;DHT22;37438;55.674;13.074;2023-03-14T12:06:51;5.50;99.90
20233;DHT22;37438;55.674;13.074;2023-03-14T12:09:55;5.40;99.90
20233;DHT22;37438;55.674;13.074;2023-03-14T12:13:00;5.60;99.90
20233;DHT22;37438;55.674;13.074;2023-03-14T12:16:07;5.80;99.90
20233;DHT22;37438;55.674;13.074;2023-03-14T12:19:39;5.80;99.90
20233;DHT22;37438;55.674;13.074;2023-03-14T12:22:49;5.70;99.90
20233;DHT22;37438;55.674;13.074;2023-03-14T12:29:17;5.70;99.90
20233;DHT22;37438;55.674;13.074;2023-03-14T12:32:24;5.70;99.90
20233;DHT22;37438;55.674;13.074;2023-03-14T12:35:37;5.50;99.90
20233;DHT22;37438;55.674;13.074;2023-03-14T12:39:13;5.30;99.90
20233;DHT22;37438;55.674;13.074;2023-03-14T12:46:26;5.70;99.90
20233;DHT22;37438;55.674;13.074;2023-03-14T12:49:31;5.70;99.90
20233;DHT22;37438;55.674;13.074;2023-03-14T12:52:36;5.80;99.90
20233;DHT22;37438;55.674;13.074;2023-03-14T12:55:57;6.20;99.90
20233;DHT22;37438;55.674;13.074;2023-03-14T12:59:13;6.10;99.90
20233;DHT22;37438;55.674;13.074;2023-03-14T13:02:40;6.10;99.90
20233;DHT22;37438;55.674;13.074;2023-03-14T13:05:57;6.30;99.90
20233;DHT22;37438;55.674;13.074;2023-03-14T13:13:14;6.20;99.90
20233;DHT22;37438;55.674;13.074;2023-03-14T13:16:21;6.60;99.90
20233;DHT22;37438;55.674;13.074;2023-03-14T13:19:28;6.60;99.90
20233;DHT22;37438;55.674;13.074;2023-03-14T13:22:34;6.50;99.90
20233;DHT22;37438;55.674;13.074;2023-03-14T13:25:41;6.40;99.90
20233;DHT22;37438;55.674;13.074;2023-03-14T13:28:45;6.60;99.90
20233;DHT22;37438;55.674;13.074;2023-03-14T13:31:55;6.50;99.90
20233;DHT22;37438;55.674;13.074;2023-03-14T13:35:15;6.30;99.90
20233;DHT22;37438;55.674;13.074;2023-03-14T13:38:25;6.50;99.90
20233;DHT22;37438;55.674;13.074;2023-03-14T13:41:29;6.50;99.90
20233;DHT22;37438;55.674;13.074;2023-03-14T13:44:37;6.80;99.90
20233;DHT22;37438;55.674;13.074;2023-03-14T13:47:42;6.70;99.90
20233;DHT22;37438;55.674;13.074;2023-03-14T13:50:54;6.70;99.90
20233;DHT22;37438;55.674;13.074;2023-03-14T13:53:59;6.80;99.90
20233;DHT22;37438;55.674;13.074;2023-03-14T13:57:05;6.70;99.90
20233;DHT22;37438;55.674;13.074;2023-03-14T14:00:19;6.80;99.90
20233;DHT22;37438;55.674;13.074;2023-03-14T14:03:24;6.70;99.90
20233;DHT22;37438;55.674;13.074;2023-03-14T14:06:37;6.70;99.90
20233;DHT22;37438;55.674;13.074;2023-03-14T14:09:49;6.90;99.90
20233;DHT22;37438;55.674;13.074;2023-03-14T14:13:00;6.80;2.90
20233;DHT22;37438;55.674;13.074;2023-03-14T14:16:06;6.80;99.90
20233;DHT22;37438;55.674;13.074;2023-03-14T14:19:12;7.20;1.00
20233;DHT22;37438;55.674;13.074;2023-03-14T14:22:17;7.90;99.90
20233;DHT22;37438;55.674;13.074;2023-03-14T14:25:22;7.40;99.90
20233;DHT22;37438;55.674;13.074;2023-03-14T14:28:35;7.40;92.20
20233;DHT22;37438;55.674;13.074;2023-03-14T14:31:43;7.50;1.00
20233;DHT22;37438;55.674;13.074;2023-03-14T14:37:59;7.30;99.90
20233;DHT22;37438;55.674;13.074;2023-03-14T14:41:04;7.30;99.90
20233;DHT22;37438;55.674;13.074;2023-03-14T14:44:13;7.40;99.90
20233;DHT22;37438;55.674;13.074;2023-03-14T14:47:23;7.70;99.90
20233;DHT22;37438;55.674;13.074;2023-03-14T14:50:34;7.50;99.90
20233;DHT22;37438;55.674;13.074;2023-03-14T14:53:39;7.50;99.90
20233;DHT22;37438;55.674;13.074;2023-03-14T14:56:51;7.30;99.90
20233;DHT22;37438;55.674;13.074;2023-03-14T15:00:01;8.10;99.90
20233;DHT22;37438;55.674;13.074;2023-03-14T15:03:12;7.70;99.90
20233;DHT22;37438;55.674;13.074;2023-03-14T15:06:19;6.90;99.90
20233;DHT22;37438;55.674;13.074;2023-03-14T15:09:24;6.60;1.00
20233;DHT22;37438;55.674;13.074;2023-03-14T15:12:28;6.30;16.00
20233;DHT22;37438;55.674;13.074;2023-03-14T15:15:33;6.10;45.30
20233;DHT22;37438;55.674;13.074;2023-03-14T15:18:38;6.10;99.90
20233;DHT22;37438;55.674;13.074;2023-03-14T15:21:43;5.80;99.90
20233;DHT22;37438;55.674;13.074;2023-03-14T15:24:47;5.90;99.90
20233;DHT22;37438;55.674;13.074;2023-03-14T15:27:52;5.90;99.90
20233;DHT22;37438;55.674;13.074;2023-03-14T15:30:58;5.80;1.00
20233;DHT22;37438;55.674;13.074;2023-03-14T15:34:03;5.70;99.90
20233;DHT22;37438;55.674;13.074;2023-03-14T15:37:14;5.80;99.90
20233;DHT22;37438;55.674;13.074;2023-03-14T15:40:26;5.70;99.90
20233;DHT22;37438;55.674;13.074;2023-03-14T15:43:34;5.70;99.90
20233;DHT22;37438;55.674;13.074;2023-03-14T15:46:38;5.70;99.90
20233;DHT22;37438;55.674;13.074;2023-03-14T15:49:43;5.70;99.90
20233;DHT22;37438;55.674;13.074;2023-03-14T15:52:48;5.70;99.90
20233;DHT22;37438;55.674;13.074;2023-03-14T15:55:53;5.70;99.90
20233;DHT22;37438;55.674;13.074;2023-03-14T15:58:57;5.70;20.90
20233;DHT22;37438;55.674;13.074;2023-03-14T16:02:02;5.70;1.00
20233;DHT22;37438;55.674;13.074;2023-03-14T16:05:09;5.60;1.50
20233;DHT22;37438;55.674;13.074;2023-03-14T16:08:13;5.60;6.30
20233;DHT22;37438;55.674;13.074;2023-03-14T16:11:17;5.60;1.00
20233;DHT22;37438;55.674;13.074;2023-03-14T16:14:24;5.60;1.00
20233;DHT22;37438;55.674;13.074;2023-03-14T16:17:29;5.60;1.00
20233;DHT22;37438;55.674;13.074;2023-03-14T16:20:34;5.60;1.00
20233;DHT22;37438;55.674;13.074;2023-03-14T16:23:51;5.50;1.00
20233;DHT22;37438;55.674;13.074;2023-03-14T16:26:55;5.60;1.00
20233;DHT22;37438;55.674;13.074;2023-03-14T16:29:59;5.70;58.10
20233;DHT22;37438;55.674;13.074;2023-03-14T16:33:04;5.60;54.10
20233;DHT22;37438;55.674;13.074;2023-03-14T16:36:15;5.50;24.90
20233;DHT22;37438;55.674;13.074;2023-03-14T16:39:20;5.50;99.90
20233;DHT22;37438;55.674;13.074;2023-03-14T16:42:24;5.50;55.90
20233;DHT22;37438;55.674;13.074;2023-03-14T16:45:29;5.40;42.90
20233;DHT22;37438;55.674;13.074;2023-03-14T16:48:34;5.40;99.90
20233;DHT22;37438;55.674;13.074;2023-03-14T16:51:38;5.30;99.90
20233;DHT22;37438;55.674;13.074;2023-03-14T16:54:43;5.30;94.00
20233;DHT22;37438;55.674;13.074;2023-03-14T16:57:47;5.30;39.80
20233;DHT22;37438;55.674;13.074;2023-03-14T17:00:52;5.20;5.60
20233;DHT22;37438;55.674;13.074;2023-03-14T17:03:57;5.20;99.90
20233;DHT22;37438;55.674;13.074;2023-03-14T17:07:01;5.20;99.90
20233;DHT22;37438;55.674;13.074;2023-03-14T17:10:05;5.20;99.90
20233;DHT22;37438;55.674;13.074;2023-03-14T17:13:10;5.20;99.90
20233;DHT22;37438;55.674;13.074;2023-03-14T17:16:15;5.10;1.00
20233;DHT22;37438;55.674;13.074;2023-03-14T17:19:19;5.10;99.90
20233;DHT22;37438;55.674;13.074;2023-03-14T17:22:24;5.10;99.90
20233;DHT22;37438;55.674;13.074;2023-03-14T17:25:35;5.00;99.90
20233;DHT22;37438;55.674;13.074;2023-03-14T17:28:41;5.00;99.90
20233;DHT22;37438;55.674;13.074;2023-03-14T17:31:45;4.90;1.00
20233;DHT22;37438;55.674;13.074;2023-03-14T17:34:50;4.90;1.00
20233;DHT22;37438;55.674;13.074;2023-03-14T17:37:54;4.90;99.90
20233;DHT22;37438;55.674;13.074;2023-03-14T17:40:59;4.90;99.90
20233;DHT22;37438;55.674;13.074;2023-03-14T17:44:03;4.80;64.20
20233;DHT22;37438;55.674;13.074;2023-03-14T17:47:09;4.80;99.90
20233;DHT22;37438;55.674;13.074;2023-03-14T17:50:14;4.80;99.90
20233;DHT22;37438;55.674;13.074;2023-03-14T17:53:18;4.80;99.90
20233;DHT22;37438;55.674;13.074;2023-03-14T17:56:23;5.00;99.90
20233;DHT22;37438;55.674;13.074;2023-03-14T17:59:28;4.80;99.90
20233;DHT22;37438;55.674;13.074;2023-03-14T18:02:34;4.80;99.90
20233;DHT22;37438;55.674;13.074;2023-03-14T18:05:39;4.70;99.90
20233;DHT22;37438;55.674;13.074;2023-03-14T18:08:44;4.70;99.90
20233;DHT22;37438;55.674;13.074;2023-03-14T18:11:49;4.70;1.00
20233;DHT22;37438;55.674;13.074;2023-03-14T18:15:09;4.70;24.80
20233;DHT22;37438;55.674;13.074;2023-03-14T18:18:13;4.60;99.90
20233;DHT22;37438;55.674;13.074;2023-03-14T18:21:18;4.60;1.00
20233;DHT22;37438;55.674;13.074;2023-03-14T18:24:24;4.60;1.00
20233;DHT22;37438;55.674;13.074;2023-03-14T18:27:32;4.50;1.00
20233;DHT22;37438;55.674;13.074;2023-03-14T18:30:36;4.50;1.00
20233;DHT22;37438;55.674;13.074;2023-03-14T18:33:41;4.50;67.50
20233;DHT22;37438;55.674;13.074;2023-03-14T18:36:45;4.50;99.90
20233;DHT22;37438;55.674;13.074;2023-03-14T18:39:50;4.40;96.10
20233;DHT22;37438;55.674;13.074;2023-03-14T18:42:54;4.40;99.90
20233;DHT22;37438;55.674;13.074;2023-03-14T18:46:00;4.40;99.90
20233;DHT22;37438;55.674;13.074;2023-03-14T18:49:04;4.40;99.90
20233;DHT22;37438;55.674;13.074;2023-03-14T18:52:08;4.30;99.90
20233;DHT22;37438;55.674;13.074;2023-03-14T18:55:13;4.30;99.90
20233;DHT22;37438;55.674;13.074;2023-03-14T18:58:18;4.30;1.00
20233;DHT22;37438;55.674;13.074;2023-03-14T19:01:26;4.30;99.90
20233;DHT22;37438;55.674;13.074;2023-03-14T19:04:35;4.30;1.00
20233;DHT22;37438;55.674;13.074;2023-03-14T19:07:39;4.30;99.90
20233;DHT22;37438;55.674;13.074;2023-03-14T19:10:44;4.30;99.40
20233;DHT22;37438;55.674;13.074;2023-03-14T19:13:48;4.30;99.90
20233;DHT22;37438;55.674;13.074;2023-03-14T19:16:52;4.30;99.90
20233;DHT22;37438;55.674;13.074;2023-03-14T19:19:57;4.30;21.50
20233;DHT22;37438;55.674;13.074;2023-03-14T19:23:02;4.30;99.90
20233;DHT22;37438;55.674;13.074;2023-03-14T19:26:06;4.30;99.90
20233;DHT22;37438;55.674;13.074;2023-03-14T19:29:12;4.20;99.90
20233;DHT22;37438;55.674;13.074;2023-03-14T19:32:18;4.20;1.00
20233;DHT22;37438;55.674;13.074;2023-03-14T19:35:23;4.20;1.00
20233;DHT22;37438;55.674;13.074;2023-03-14T19:38:28;4.10;1.00
20233;DHT22;37438;55.674;13.074;2023-03-14T19:41:33;4.20;1.00
20233;DHT22;37438;55.674;13.074;2023-03-14T19:44:38;4.10;99.90
20233;DHT22;37438;55.674;13.074;2023-03-14T19:47:42;4.10;99.90
20233;DHT22;37438;55.674;13.074;2023-03-14T19:50:46;4.10;99.90
20233;DHT22;37438;55.674;13.074;2023-03-14T19:53:51;4.10;99.90
20233;DHT22;37438;55.674;13.074;2023-03-14T19:56:56;4.10;99.90
20233;DHT22;37438;55.674;13.074;2023-03-14T20:00:01;4.10;99.90
20233;DHT22;37438;55.674;13.074;2023-03-14T20:03:14;4.10;99.90
20233;DHT22;37438;55.674;13.074;2023-03-14T20:06:19;4.10;99.90
20233;DHT22;37438;55.674;13.074;2023-03-14T20:09:25;4.10;99.90
20233;DHT22;37438;55.674;13.074;2023-03-14T20:12:30;4.00;99.90
20233;DHT22;37438;55.674;13.074;2023-03-14T20:15:35;4.00;99.90
20233;DHT22;37438;55.674;13.074;2023-03-14T20:18:39;4.00;99.90
20233;DHT22;37438;55.674;13.074;2023-03-14T20:21:44;4.00;99.90
20233;DHT22;37438;55.674;13.074;2023-03-14T20:24:48;4.00;99.90
20233;DHT22;37438;55.674;13.074;2023-03-14T20:27:55;4.00;99.90
20233;DHT22;37438;55.674;13.074;2023-03-14T20:30:59;4.00;99.90
20233;DHT22;37438;55.674;13.074;2023-03-14T20:34:04;4.00;99.90
20233;DHT22;37438;55.674;13.074;2023-03-14T20:37:09;4.00;99.90
20233;DHT22;37438;55.674;13.074;2023-03-14T20:40:13;4.00;99.90
20233;DHT22;37438;55.674;13.074;2023-03-14T20:43:18;4.00;99.90